Time;durP1;ratioP1;P1;durP2;ratioP2;P2;SDS_P1;SDS_P2;PMS_P1;PMS_P2;Temp;Humidity;BMP_temperature;BMP_pressure;BME280_temperature;BME280_humidity;BME280_pressure;Samples;Min_cycle;Max_cycle;Signal;HPM_P1;HPM_P2
2021/03/22 00:05:02;;;;;;;22.48;4.40;;;5.70;99.90;;;;;;5072726;28;20055;-62
2021/03/22 00:07:33;;;;;;;23.40;4.15;;;5.70;99.90;;;;;;5069099;28;20041;-62
2021/03/22 00:17:34;;;;;;;12.68;2.97;;;5.80;99.90;;;;;;5071781;28;20485;-62
2021/03/22 00:20:04;;;;;;;16.27;4.47;;;5.80;99.90;;;;;;5073521;28;20075;-62
2021/03/22 00:22:32;;;;;;;23.73;3.88;;;5.80;99.90;;;;;;5075162;28;20041;-62
2021/03/22 00:25:05;;;;;;;24.08;3.70;;;5.80;99.90;;;;;;5068251;28;20479;-61
2021/03/22 00:27:37;;;;;;;24.10;4.17;;;5.80;99.90;;;;;;5077538;28;20068;-62
2021/03/22 00:41:05;;;;;;;22.13;5.53;;;5.80;99.90;;;;;;5071740;28;20503;-62
2021/03/22 00:43:34;;;;;;;18.70;4.30;;;5.80;99.90;;;;;;5076283;28;20112;-62
2021/03/22 00:46:01;;;;;;;17.35;3.50;;;5.80;99.90;;;;;;5059983;28;20041;-62
2021/03/22 00:48:36;;;;;;;24.90;4.18;;;5.80;99.90;;;;;;5056778;28;20434;-62
2021/03/22 00:51:07;;;;;;;15.95;3.08;;;5.80;99.90;;;;;;5074304;28;20044;-63
2021/03/22 00:53:34;;;;;;;26.63;4.38;;;5.90;99.90;;;;;;5076244;28;20400;-63
2021/03/22 01:03:45;;;;;;;16.38;4.03;;;5.90;99.90;;;;;;5070883;28;20044;-63
2021/03/22 01:06:18;;;;;;;11.55;2.60;;;5.90;99.90;;;;;;5076421;28;20395;-63
2021/03/22 01:08:53;;;;;;;15.02;4.05;;;5.90;99.90;;;;;;5075974;28;20119;-63
2021/03/22 01:18:50;;;;;;;15.80;3.75;;;5.80;99.90;;;;;;5069919;28;20441;-62
2021/03/22 01:28:31;;;;;;;15.80;3.13;;;5.80;99.90;;;;;;5076492;28;20465;-62
2021/03/22 01:31:01;;;;;;;16.65;3.47;;;5.80;99.90;;;;;;5055987;28;20106;-62
2021/03/22 01:33:35;;;;;;;15.18;3.33;;;5.80;99.90;;;;;;5071875;28;20044;-63
2021/03/22 01:36:18;;;;;;;21.10;3.97;;;5.80;99.90;;;;;;5059258;28;20480;-62
2021/03/22 01:38:45;;;;;;;15.50;3.03;;;5.80;99.90;;;;;;5076065;28;20040;-62
2021/03/22 01:41:40;;;;;;;15.75;3.47;;;5.80;99.90;;;;;;5075918;28;20044;-62
2021/03/22 01:48:40;;;;;;;11.73;2.35;;;5.80;99.90;;;;;;5075234;28;20119;-62
2021/03/22 01:51:06;;;;;;;13.43;2.90;;;5.80;99.90;;;;;;5075252;28;20045;-62
2021/03/22 01:53:34;;;;;;;19.17;3.00;;;5.80;99.90;;;;;;5070317;28;20036;-62
2021/03/22 01:56:23;;;;;;;12.00;2.10;;;5.80;99.90;;;;;;5075096;28;20037;-62
2021/03/22 01:59:16;;;;;;;15.52;3.10;;;5.80;99.90;;;;;;5075098;28;20044;-62
2021/03/22 02:05:49;;;;;;;18.33;2.70;;;5.80;99.90;;;;;;5054872;28;20116;-62
2021/03/22 02:08:39;;;;;;;17.27;3.28;;;5.80;99.90;;;;;;5054749;28;20041;-62
2021/03/22 02:11:27;;;;;;;12.20;2.13;;;5.80;99.90;;;;;;5035796;28;20072;-62
2021/03/22 02:14:05;;;;;;;15.88;2.92;;;5.90;99.90;;;;;;5054712;28;20045;-62
2021/03/22 02:16:52;;;;;;;16.10;2.85;;;5.80;99.90;;;;;;5054730;28;20049;-62
2021/03/22 02:23:48;;;;;;;8.25;1.40;;;5.80;99.90;;;;;;5034935;28;20036;-62
2021/03/22 02:33:59;;;;;;;11.82;1.70;;;5.70;99.90;;;;;;5054750;28;20041;-62
2021/03/22 02:40:59;;;;;;;17.15;2.22;;;5.80;99.90;;;;;;5054054;28;20048;-62
2021/03/22 02:43:36;;;;;;;9.38;1.85;;;5.80;99.90;;;;;;5054433;28;20052;-63
2021/03/22 02:46:06;;;;;;;15.63;2.03;;;5.70;99.90;;;;;;5032464;28;20408;-61
2021/03/22 02:48:40;;;;;;;14.98;1.77;;;5.70;99.90;;;;;;5054116;28;20484;-62
2021/03/22 02:51:37;;;;;;;7.25;1.58;;;5.70;99.90;;;;;;5053893;28;20037;-62
2021/03/22 02:54:23;;;;;;;16.60;1.98;;;5.70;99.90;;;;;;5052093;28;20075;-62
2021/03/22 02:57:32;;;;;;;7.40;1.27;;;5.70;99.90;;;;;;5053743;28;20554;-62
2021/03/22 03:00:09;;;;;;;8.50;1.42;;;5.60;99.90;;;;;;5053283;28;20464;-62
2021/03/22 03:06:18;;;;;;;12.25;1.50;;;5.60;99.90;;;;;;5073532;28;20035;-62
2021/03/22 03:09:02;;;;;;;6.93;1.70;;;5.70;99.90;;;;;;5072736;28;20059;-61
2021/03/22 03:11:31;;;;;;;6.32;1.60;;;5.60;99.90;;;;;;5073811;28;20123;-62
2021/03/22 03:14:05;;;;;;;17.75;2.10;;;5.70;99.90;;;;;;5071388;28;20086;-62
2021/03/22 03:16:37;;;;;;;8.25;1.63;;;5.70;99.90;;;;;;5053824;28;20526;-61
2021/03/22 03:22:50;;;;;;;9.25;2.40;;;5.60;99.90;;;;;;5073252;28;20086;-62
2021/03/22 03:25:23;;;;;;;11.20;1.80;;;5.60;99.90;;;;;;5073387;28;20037;-62
2021/03/22 03:31:34;;;;;;;12.48;1.40;;;5.60;99.90;;;;;;5073142;28;20044;-62
2021/03/22 03:34:06;;;;;;;6.97;1.40;;;5.60;99.90;;;;;;5072794;28;20146;-62
2021/03/22 03:36:58;;;;;;;11.10;1.30;;;5.60;99.90;;;;;;5064130;28;20120;-62
2021/03/22 03:39:33;;;;;;;10.70;1.45;;;5.60;99.90;;;;;;5073646;28;20080;-61
2021/03/22 03:46:29;;;;;;;8.90;1.33;;;5.60;99.90;;;;;;5069348;28;20048;-62
2021/03/22 03:49:09;;;;;;;8.20;1.30;;;5.70;99.90;;;;;;5073504;28;20476;-62
2021/03/22 03:52:04;;;;;;;9.23;1.30;;;5.70;99.90;;;;;;5073058;28;20075;-62
2021/03/22 03:54:41;;;;;;;4.65;1.10;;;5.70;99.90;;;;;;5057491;28;20040;-61
2021/03/22 03:57:08;;;;;;;6.28;1.20;;;5.70;99.90;;;;;;5055227;28;20033;-61
2021/03/22 03:59:33;;;;;;;5.97;1.50;;;5.70;99.90;;;;;;5072692;28;20052;-61
2021/03/22 04:02:14;;;;;;;5.95;1.33;;;5.70;99.90;;;;;;5073051;28;20045;-62
2021/03/22 04:04:46;;;;;;;5.50;0.90;;;5.70;99.90;;;;;;5073503;28;20381;-62
2021/03/22 04:11:31;;;;;;;3.40;0.90;;;5.70;99.90;;;;;;5068227;28;20094;-62
2021/03/22 04:14:18;;;;;;;8.15;1.10;;;5.70;99.90;;;;;;5070924;28;20045;-62
2021/03/22 04:17:34;;;;;;;5.72;0.80;;;5.80;99.90;;;;;;5069638;28;20123;-62
2021/03/22 04:20:04;;;;;;;7.00;1.35;;;5.70;99.90;;;;;;5067902;28;20120;-62
2021/03/22 04:22:33;;;;;;;9.68;1.02;;;5.70;99.90;;;;;;5072812;28;20480;-62
2021/03/22 04:25:07;;;;;;;9.38;1.58;;;5.80;99.90;;;;;;5073013;28;20094;-61
2021/03/22 04:27:33;;;;;;;9.73;1.25;;;5.80;99.90;;;;;;5072931;28;20048;-61
2021/03/22 04:30:08;;;;;;;10.75;1.38;;;5.70;99.90;;;;;;5072992;28;20089;-62
2021/03/22 04:32:35;;;;;;;9.77;1.30;;;5.70;99.90;;;;;;5073011;28;20037;-62
2021/03/22 04:35:08;;;;;;;14.32;1.75;;;5.70;99.90;;;;;;5072696;28;20477;-62
2021/03/22 04:37:34;;;;;;;12.00;1.80;;;5.70;99.90;;;;;;5072969;28;20402;-62
2021/03/22 04:40:05;;;;;;;7.65;1.52;;;5.70;99.90;;;;;;5039264;28;20396;-62
2021/03/22 04:42:32;;;;;;;12.90;1.63;;;5.70;99.90;;;;;;5067565;28;20049;-62
2021/03/22 04:45:34;;;;;;;9.77;1.13;;;5.70;99.90;;;;;;5052819;28;20068;-61
2021/03/22 04:52:33;;;;;;;6.53;1.02;;;5.60;99.90;;;;;;5068138;28;20548;-62
2021/03/22 04:55:07;;;;;;;7.88;1.00;;;5.60;99.90;;;;;;5071101;28;20052;-62
2021/03/22 04:57:34;;;;;;;5.50;1.65;;;5.60;99.90;;;;;;5070214;28;20045;-61
2021/03/22 05:00:13;;;;;;;8.38;1.42;;;5.60;99.90;;;;;;5071637;28;20103;-62
2021/03/22 05:03:17;;;;;;;4.85;0.90;;;5.60;99.90;;;;;;5053938;28;20059;-62
2021/03/22 05:06:05;;;;;;;4.55;1.13;;;5.60;99.90;;;;;;5058084;28;20044;-62
2021/03/22 05:08:31;;;;;;;4.68;0.80;;;5.60;99.90;;;;;;5073813;28;20442;-62
2021/03/22 05:15:04;;;;;;;8.35;1.20;;;5.60;99.90;;;;;;5075985;28;20047;-62
2021/03/22 05:17:35;;;;;;;3.47;0.80;;;5.60;99.90;;;;;;5055925;28;20049;-62
2021/03/22 05:27:34;;;;;;;5.05;1.10;;;5.70;99.90;;;;;;5075454;28;20050;-62
2021/03/22 05:30:15;;;;;;;5.13;1.45;;;5.60;99.90;;;;;;5067546;28;20048;-63
2021/03/22 05:32:55;;;;;;;6.90;1.30;;;5.60;99.90;;;;;;5071654;28;20044;-62
2021/03/22 05:35:28;;;;;;;8.90;1.10;;;5.70;99.90;;;;;;5075727;28;20075;-62
2021/03/22 05:38:06;;;;;;;9.88;1.35;;;5.60;99.90;;;;;;5072935;28;20529;-62
2021/03/22 05:40:53;;;;;;;6.93;1.00;;;5.70;99.90;;;;;;5059529;28;20033;-62
2021/03/22 05:47:40;;;;;;;6.28;1.48;;;5.70;99.90;;;;;;5075303;28;20050;-62
2021/03/22 05:50:53;;;;;;;8.25;1.20;;;5.70;99.90;;;;;;5075512;28;20127;-62
2021/03/22 05:53:47;;;;;;;9.10;1.23;;;5.70;99.90;;;;;;5046399;28;20061;-62
2021/03/22 06:00:31;;;;;;;6.45;1.00;;;5.70;99.90;;;;;;5075005;28;20115;-62
2021/03/22 06:03:18;;;;;;;8.48;1.65;;;5.70;99.90;;;;;;5045069;28;20041;-62
2021/03/22 06:10:02;;;;;;;9.55;1.65;;;5.70;99.90;;;;;;5051342;28;20031;-62
2021/03/22 06:12:36;;;;;;;8.57;1.05;;;5.70;99.90;;;;;;5051223;28;20087;-63
2021/03/22 06:15:29;;;;;;;4.53;1.60;;;5.70;99.90;;;;;;5035432;28;20060;-62
2021/03/22 06:25:33;;;;;;;3.72;0.90;;;5.70;99.90;;;;;;5034865;28;20039;-63
2021/03/22 06:28:46;;;;;;;4.07;1.05;;;5.80;99.90;;;;;;5039209;28;20044;-62
2021/03/22 06:35:30;;;;;;;7.75;1.10;;;5.90;99.90;;;;;;5042510;28;20408;-62
2021/03/22 06:38:05;;;;;;;8.55;1.23;;;5.90;99.90;;;;;;5052699;28;20468;-62
2021/03/22 06:41:22;;;;;;;3.55;0.90;;;5.90;99.90;;;;;;5038730;28;20053;-62
2021/03/22 06:47:34;;;;;;;6.03;1.10;;;5.90;99.90;;;;;;5050768;28;20098;-62
2021/03/22 06:50:38;;;;;;;4.05;0.98;;;6.00;99.90;;;;;;5054063;28;20036;-62
2021/03/22 06:53:10;;;;;;;8.40;1.40;;;6.00;99.90;;;;;;4998602;28;20073;-63
2021/03/22 07:00:00;;;;;;;7.63;2.08;;;6.00;99.90;;;;;;5053932;28;20047;-62
2021/03/22 07:02:29;;;;;;;4.68;2.00;;;6.10;99.90;;;;;;5067191;28;20064;-62
2021/03/22 07:05:20;;;;;;;6.55;2.40;;;6.10;99.90;;;;;;5072229;28;20047;-62
2021/03/22 07:08:21;;;;;;;8.23;1.88;;;6.10;99.90;;;;;;5073958;28;20048;-62
2021/03/22 07:11:17;;;;;;;7.47;2.22;;;6.10;99.90;;;;;;5070826;28;20136;-63
2021/03/22 07:17:31;;;;;;;6.00;1.38;;;6.10;99.90;;;;;;5073697;28;20086;-62
2021/03/22 07:20:18;;;;;;;5.90;1.50;;;6.20;99.90;;;;;;5073850;28;20045;-62
2021/03/22 07:23:22;;;;;;;2.58;1.08;;;6.20;99.90;;;;;;5073460;28;20062;-62
2021/03/22 07:26:26;;;;;;;3.97;1.25;;;6.30;99.90;;;;;;5071485;28;20483;-62
2021/03/22 07:33:12;;;;;;;7.20;2.10;;;6.40;99.90;;;;;;5069452;28;20051;-63
2021/03/22 07:36:06;;;;;;;2.45;0.90;;;6.50;99.90;;;;;;5073400;28;20045;-63
2021/03/22 07:39:09;;;;;;;6.03;1.73;;;6.50;99.90;;;;;;5043881;28;20041;-64
2021/03/22 07:45:22;;;;;;;8.82;1.50;;;6.70;99.90;;;;;;5069101;28;20041;-64
2021/03/22 07:48:28;;;;;;;5.03;0.82;;;6.80;99.90;;;;;;5071115;28;20400;-62
2021/03/22 07:55:00;;;;;;;5.60;0.70;;;6.80;99.90;;;;;;5071195;28;20051;-66
2021/03/22 07:57:50;;;;;;;6.82;1.05;;;6.70;99.90;;;;;;5053851;28;20041;-64
2021/03/22 08:00:34;;;;;;;9.60;1.27;;;6.70;99.90;;;;;;5054815;28;20076;-64
2021/03/22 08:03:26;;;;;;;5.55;1.02;;;6.70;99.90;;;;;;5052988;28;20400;-63
2021/03/22 08:10:08;;;;;;;8.75;1.30;;;6.60;99.90;;;;;;5045089;28;20043;-64
2021/03/22 08:13:04;;;;;;;13.75;1.45;;;6.60;99.90;;;;;;5047428;28;20041;-64
2021/03/22 08:15:46;;;;;;;9.60;1.48;;;6.50;99.90;;;;;;5036231;28;20043;-63
2021/03/22 08:22:40;;;;;;;5.10;1.30;;;6.50;99.90;;;;;;5052635;28;20067;-64
2021/03/22 08:33:13;;;;;;;9.75;1.42;;;6.50;99.90;;;;;;5052507;28;20079;-66
2021/03/22 08:40:10;;;;;;;8.73;1.40;;;6.60;99.90;;;;;;4990560;28;20073;-63
2021/03/22 08:42:44;;;;;;;6.30;1.10;;;6.70;99.90;;;;;;4975578;28;20077;-63
2021/03/22 08:45:45;;;;;;;3.53;0.90;;;6.80;99.90;;;;;;4994869;28;20051;-63
2021/03/22 08:52:44;;;;;;;2.45;0.45;;;6.90;99.90;;;;;;4994927;28;20049;-63
2021/03/22 08:55:20;;;;;;;5.28;1.02;;;7.00;99.90;;;;;;5029895;28;20088;-62
2021/03/22 08:58:30;;;;;;;6.82;1.67;;;7.00;99.90;;;;;;5055426;28;20068;-63
2021/03/22 09:01:17;;;;;;;8.57;1.13;;;7.10;99.90;;;;;;5054581;28;20139;-63
2021/03/22 09:07:46;;;;;;;6.15;1.13;;;7.20;99.90;;;;;;5076024;28;20031;-64
2021/03/22 09:10:41;;;;;;;6.28;1.00;;;7.20;99.90;;;;;;5056776;28;20032;-64
2021/03/22 09:13:35;;;;;;;5.20;0.95;;;7.20;99.90;;;;;;5055962;28;20090;-63
2021/03/22 09:23:15;;;;;;;5.95;1.02;;;7.20;99.90;;;;;;5073019;28;20045;-64
2021/03/22 09:29:46;;;;;;;5.22;1.17;;;7.30;99.90;;;;;;5075418;28;20078;-65
2021/03/22 09:32:44;;;;;;;11.27;1.85;;;7.40;99.90;;;;;;5071585;28;20048;-64
2021/03/22 09:35:47;;;;;;;1.90;0.65;;;7.50;99.90;;;;;;5055773;28;20120;-64
2021/03/22 09:46:01;;;;;;;3.00;0.63;;;7.70;99.90;;;;;;5075035;28;20040;-62
2021/03/22 09:48:37;;;;;;;6.85;0.90;;;7.60;99.90;;;;;;5035805;28;20379;-63
2021/03/22 10:02:54;;;;;;;5.45;1.17;;;7.80;99.90;;;;;;5072907;28;20552;-64
2021/03/22 13:31:42;;;;;;;4.88;0.55;;;8.00;99.90;;;;;;4882109;29;20098;-67
2021/03/22 13:38:03;;;;;;;2.88;0.43;;;8.00;99.90;;;;;;4881451;29;20036;-66
2021/03/22 13:40:30;;;;;;;3.00;0.47;;;8.00;99.90;;;;;;4876571;29;20044;-66
2021/03/22 13:43:11;;;;;;;7.75;0.93;;;8.00;99.90;;;;;;4880009;29;20049;-64
2021/03/22 13:45:39;;;;;;;5.53;0.82;;;8.00;99.90;;;;;;4881659;29;20037;-64
2021/03/22 13:48:14;;;;;;;3.05;0.70;;;8.10;99.90;;;;;;4877878;29;20405;-65
2021/03/22 13:50:59;;;;;;;4.07;0.95;;;8.00;99.90;;;;;;4873899;29;20048;-66
2021/03/22 13:57:09;;;;;;;3.08;1.00;;;8.00;99.90;;;;;;4881184;29;20512;-65
2021/03/22 14:00:03;;;;;;;11.63;1.45;;;8.10;99.90;;;;;;4878910;29;20041;-67
2021/03/22 14:02:42;;;;;;;3.22;0.90;;;7.90;99.90;;;;;;4863056;29;20201;-66
2021/03/22 14:05:22;;;;;;;1.50;0.73;;;7.90;99.90;;;;;;4862846;29;20053;-67
2021/03/22 14:08:12;;;;;;;2.55;0.90;;;7.80;99.90;;;;;;4878704;29;20494;-66
2021/03/22 14:15:10;;;;;;;3.35;0.63;;;7.80;99.90;;;;;;4881053;29;20081;-66
2021/03/22 14:17:48;;;;;;;5.75;1.20;;;7.80;99.90;;;;;;4876976;29;20120;-67
2021/03/22 14:20:20;;;;;;;3.67;0.70;;;7.80;99.90;;;;;;4861790;29;20073;-68
2021/03/22 14:22:53;;;;;;;3.72;0.60;;;7.70;99.90;;;;;;4880943;29;20481;-65
2021/03/22 14:25:24;;;;;;;7.28;1.27;;;7.80;99.90;;;;;;4869805;29;20041;-65
2021/03/22 14:28:18;;;;;;;5.25;0.95;;;7.60;99.90;;;;;;4880669;29;20064;-68
2021/03/22 14:31:11;;;;;;;3.03;0.55;;;7.60;99.90;;;;;;4879759;29;20037;-65
2021/03/22 14:37:52;;;;;;;4.13;0.70;;;7.50;99.90;;;;;;4880530;29;20438;-66
2021/03/22 14:40:44;;;;;;;1.77;0.60;;;7.40;99.90;;;;;;4862349;29;20079;-66
2021/03/22 14:47:40;;;;;;;2.63;0.80;;;7.50;99.90;;;;;;4880305;29;20500;-66
2021/03/22 14:50:11;;;;;;;2.28;0.60;;;7.40;99.90;;;;;;4880288;29;20048;-65
2021/03/22 14:52:48;;;;;;;2.97;0.60;;;7.40;99.90;;;;;;4876858;29;20045;-65
2021/03/22 15:03:14;;;;;;;1.77;0.50;;;7.30;99.90;;;;;;5173045;27;770508;-68
2021/03/22 15:05:55;;;;;;;7.40;1.08;;;7.20;99.90;;;;;;5154950;27;20042;-65
2021/03/22 15:13:00;;;;;;;2.03;0.50;;;7.20;99.90;;;;;;5133077;27;20038;-65
2021/03/22 15:15:36;;;;;;;6.65;1.02;;;7.30;99.90;;;;;;5111197;28;20122;-65
2021/03/22 15:18:10;;;;;;;3.08;1.17;;;7.30;99.90;;;;;;5107973;27;20491;-67
2021/03/22 15:20:49;;;;;;;6.15;0.80;;;7.30;99.90;;;;;;5144892;27;20486;-66
2021/03/22 15:23:29;;;;;;;2.65;0.60;;;7.40;99.90;;;;;;5114621;27;20040;-67
2021/03/22 15:33:47;;;;;;;7.28;1.02;;;7.40;99.90;;;;;;5110750;28;20043;-67
2021/03/22 15:36:21;;;;;;;7.50;1.30;;;7.50;99.90;;;;;;5135902;27;20035;-66
2021/03/22 15:39:02;;;;;;;5.57;0.90;;;7.50;99.90;;;;;;5151721;27;20065;-66
2021/03/22 15:45:39;;;;;;;6.72;1.02;;;7.60;99.90;;;;;;5151028;27;20392;-67
2021/03/22 15:48:25;;;;;;;3.88;0.77;;;7.50;99.90;;;;;;5101434;28;20134;-65
2021/03/22 15:51:00;;;;;;;7.72;1.58;;;7.50;99.90;;;;;;5134113;27;20051;-65
2021/03/22 15:53:32;;;;;;;6.45;1.20;;;7.50;99.90;;;;;;5134292;27;20060;-65
2021/03/22 15:56:01;;;;;;;2.67;0.70;;;7.60;99.90;;;;;;5151300;27;20046;-65
2021/03/22 15:58:32;;;;;;;5.22;1.15;;;7.50;99.90;;;;;;5151257;27;20043;-67
2021/03/22 16:01:00;;;;;;;5.60;1.10;;;7.40;99.90;;;;;;5151284;27;20051;-66
2021/03/22 16:03:26;;;;;;;6.00;1.60;;;7.40;99.90;;;;;;5151017;27;20172;-67
2021/03/22 16:06:06;;;;;;;7.80;1.20;;;7.40;99.90;;;;;;5110190;28;20039;-68
2021/03/22 16:08:44;;;;;;;3.55;1.42;;;7.40;99.90;;;;;;5126143;27;20039;-69
2021/03/22 16:11:19;;;;;;;4.43;1.58;;;7.30;99.90;;;;;;5111231;27;20123;-72
2021/03/22 16:13:53;;;;;;;4.03;1.17;;;7.40;99.90;;;;;;5123054;27;20051;-70
2021/03/22 16:23:38;;;;;;;1.23;0.50;;;7.30;99.90;;;;;;5137302;27;20047;-67
2021/03/22 16:26:11;;;;;;;1.73;0.57;;;7.40;99.90;;;;;;5125340;27;20039;-68
2021/03/22 16:28:37;;;;;;;1.10;0.35;;;7.30;99.90;;;;;;5137043;27;20066;-69
2021/03/22 16:31:16;;;;;;;2.83;0.50;;;7.30;99.90;;;;;;5126516;27;20050;-68
2021/03/22 16:33:42;;;;;;;6.03;0.77;;;7.40;99.90;;;;;;5136900;27;20437;-65
2021/03/22 16:36:29;;;;;;;2.58;0.63;;;7.20;99.90;;;;;;5136608;27;20082;-66
2021/03/22 16:39:11;;;;;;;3.25;1.20;;;7.10;99.90;;;;;;5100389;27;20422;-66
2021/03/22 16:41:58;;;;;;;0.80;0.35;;;7.10;99.90;;;;;;5103105;27;20035;-66
2021/03/22 16:44:53;;;;;;;1.10;0.50;;;7.10;99.90;;;;;;5136567;27;20073;-66
2021/03/22 16:54:23;;;;;;;2.35;0.50;;;7.10;99.90;;;;;;5137109;27;20070;-66
2021/03/22 17:11:47;;;;;;;1.10;0.40;;;7.10;99.90;;;;;;5095289;28;20447;-67
2021/03/22 17:14:16;;;;;;;1.92;0.65;;;7.10;99.90;;;;;;5097171;27;20047;-66
2021/03/22 17:16:42;;;;;;;2.55;0.82;;;7.00;99.90;;;;;;5135950;27;20474;-65
2021/03/22 17:19:18;;;;;;;1.90;0.63;;;7.00;99.90;;;;;;5133001;27;20042;-67
2021/03/22 17:21:48;;;;;;;1.05;0.35;;;6.90;99.90;;;;;;5113544;27;20448;-67
2021/03/22 17:24:17;;;;;;;1.00;0.43;;;6.90;99.90;;;;;;5135378;27;20051;-66
2021/03/22 17:26:49;;;;;;;1.27;0.50;;;6.90;99.90;;;;;;5135385;27;20035;-69
2021/03/22 17:29:22;;;;;;;3.47;0.80;;;6.90;99.90;;;;;;5135892;27;20070;-67
2021/03/22 17:31:54;;;;;;;3.97;0.77;;;6.90;99.90;;;;;;5117061;27;20438;-68
2021/03/22 17:34:20;;;;;;;2.83;0.80;;;6.90;99.90;;;;;;5136023;27;20051;-68
2021/03/22 17:36:55;;;;;;;0.82;0.43;;;6.90;99.90;;;;;;5117373;27;20398;-69
2021/03/22 17:39:21;;;;;;;1.23;0.52;;;7.00;99.90;;;;;;5100022;27;20053;-69
2021/03/22 17:41:53;;;;;;;4.18;0.88;;;6.90;99.90;;;;;;5094705;28;20114;-68
2021/03/22 17:44:57;;;;;;;1.10;0.50;;;6.90;99.90;;;;;;5077713;28;20113;-68
2021/03/22 17:47:38;;;;;;;2.92;0.70;;;7.00;99.90;;;;;;5123562;27;20046;-69
2021/03/22 17:54:10;;;;;;;1.15;0.50;;;7.00;99.90;;;;;;5116878;27;20033;-69
2021/03/22 17:56:54;;;;;;;2.10;0.70;;;6.90;99.90;;;;;;5118688;27;20039;-70
2021/03/22 17:59:21;;;;;;;;;;;6.90;99.90;;;;;;5117420;27;20042;-68
2021/03/22 18:01:53;;;;;;;2.25;0.80;;;6.90;99.90;;;;;;5113910;27;19926;-70
2021/03/22 18:04:24;;;;;;;1.55;0.68;;;6.90;99.90;;;;;;5134864;27;20063;-68
2021/03/22 18:14:27;;;;;;;1.42;0.60;;;6.80;99.90;;;;;;5114869;27;20457;-68
2021/03/22 18:16:54;;;;;;;2.08;0.52;;;6.90;99.90;;;;;;5127069;27;20390;-68
2021/03/22 18:19:26;;;;;;;3.30;0.85;;;6.90;99.90;;;;;;5134913;27;20079;-69
2021/03/22 18:21:57;;;;;;;1.02;0.50;;;6.90;99.90;;;;;;5134003;27;20543;-68
2021/03/22 18:24:28;;;;;;;2.45;0.70;;;6.90;99.90;;;;;;5125522;27;20481;-67
2021/03/22 18:26:56;;;;;;;3.10;1.00;;;6.90;99.90;;;;;;5123075;27;20050;-69
2021/03/22 18:29:28;;;;;;;2.03;0.80;;;6.90;99.90;;;;;;5134814;27;20043;-68
2021/03/22 18:31:56;;;;;;;1.02;0.52;;;7.10;99.90;;;;;;5133704;27;20073;-67
2021/03/22 18:34:33;;;;;;;2.13;0.90;;;6.90;99.90;;;;;;5124194;27;20493;-68
2021/03/22 18:37:02;;;;;;;2.25;0.80;;;6.90;99.90;;;;;;5111521;27;20039;-68
2021/03/22 18:39:30;;;;;;;2.50;0.80;;;6.90;99.90;;;;;;5134540;27;20116;-68
2021/03/22 18:42:07;;;;;;;1.35;0.60;;;6.90;99.90;;;;;;5098912;27;20043;-67
2021/03/22 18:44:40;;;;;;;1.27;0.60;;;6.90;99.90;;;;;;5134671;27;20039;-69
2021/03/22 18:47:24;;;;;;;5.50;0.70;;;6.90;99.90;;;;;;5133475;27;20041;-69
2021/03/22 18:50:11;;;;;;;;;;;6.90;99.90;;;;;;5134670;27;20124;-67
2021/03/22 18:52:43;;;;;;;1.52;0.60;;;6.90;99.90;;;;;;5123999;27;19920;-68
2021/03/22 18:55:36;;;;;;;2.47;0.65;;;7.00;99.90;;;;;;5104703;27;20062;-68
2021/03/22 18:58:09;;;;;;;4.05;0.50;;;6.80;99.90;;;;;;5129609;27;20050;-67
2021/03/22 19:01:02;;;;;;;1.08;0.50;;;6.80;99.90;;;;;;5134096;28;20039;-67
2021/03/22 19:07:09;;;;;;;1.73;0.70;;;6.80;99.90;;;;;;5092428;28;20134;-66
2021/03/22 19:09:44;;;;;;;2.08;0.90;;;6.80;99.90;;;;;;5092984;28;20043;-66
2021/03/22 19:12:11;;;;;;;2.17;0.88;;;6.90;99.90;;;;;;5056105;28;20045;-66
2021/03/22 19:21:59;;;;;;;2.78;0.82;;;6.80;99.90;;;;;;5083675;28;20051;-65
2021/03/22 19:24:34;;;;;;;2.75;1.00;;;6.80;99.90;;;;;;5092183;28;20048;-64
2021/03/22 19:27:33;;;;;;;1.30;0.52;;;6.80;99.90;;;;;;5089642;28;20036;-65
2021/03/22 19:34:28;;;;;;;2.10;0.88;;;6.70;99.90;;;;;;5086467;28;20043;-65
2021/03/22 19:37:00;;;;;;;1.58;0.60;;;6.70;99.90;;;;;;5088766;28;20089;-65
2021/03/22 19:40:04;;;;;;;2.50;0.80;;;6.70;99.90;;;;;;5093115;28;20105;-66
2021/03/22 19:42:31;;;;;;;1.83;0.77;;;6.60;99.90;;;;;;5081713;28;20047;-65
2021/03/22 19:44:59;;;;;;;3.95;0.60;;;6.50;99.90;;;;;;5061100;28;20115;-65
2021/03/22 19:47:36;;;;;;;2.05;0.90;;;6.50;99.90;;;;;;5060139;28;20041;-65
2021/03/22 19:50:10;;;;;;;1.33;0.70;;;6.50;99.90;;;;;;5094856;28;20044;-65
2021/03/22 19:57:04;;;;;;;2.10;0.70;;;6.40;99.90;;;;;;5091220;28;20035;-65
2021/03/22 19:59:30;;;;;;;2.63;0.98;;;6.30;99.90;;;;;;5056488;28;20069;-65
2021/03/22 20:06:28;;;;;;;1.25;0.68;;;6.10;99.90;;;;;;5115092;27;20054;-65
2021/03/22 20:08:57;;;;;;;0.98;0.60;;;6.00;99.90;;;;;;5120224;27;20038;-65
2021/03/22 20:11:53;;;;;;;1.75;0.70;;;6.00;99.90;;;;;;5137516;27;20043;-65
2021/03/22 20:18:40;;;;;;;1.42;1.05;;;5.90;99.90;;;;;;5131448;27;20389;-64
2021/03/22 20:21:40;;;;;;;2.25;1.10;;;5.80;99.90;;;;;;5136677;27;20137;-64
2021/03/22 20:24:11;;;;;;;1.55;0.85;;;5.80;99.90;;;;;;5127512;27;20042;-64
2021/03/22 20:31:11;;;;;;;1.50;0.80;;;5.70;99.90;;;;;;5136292;27;20507;-65
2021/03/22 20:33:58;;;;;;;1.55;0.82;;;5.70;99.90;;;;;;5096065;28;20058;-65
2021/03/22 20:36:25;;;;;;;2.55;0.80;;;5.80;99.90;;;;;;5128535;27;20111;-65
2021/03/22 20:38:57;;;;;;;2.88;1.00;;;5.80;99.90;;;;;;5136811;27;20031;-66
2021/03/22 20:41:44;;;;;;;1.65;0.90;;;5.80;99.90;;;;;;5136567;27;20049;-66
2021/03/22 20:44:28;;;;;;;2.53;1.02;;;5.80;99.90;;;;;;5101856;27;20039;-65
2021/03/22 20:46:56;;;;;;;4.35;1.20;;;5.80;99.90;;;;;;5106395;27;20512;-64
2021/03/22 20:53:03;;;;;;;3.95;1.00;;;5.90;99.90;;;;;;5132721;27;20038;-64
2021/03/22 20:56:19;;;;;;;3.03;1.30;;;5.90;99.90;;;;;;5136573;27;20066;-64
2021/03/22 20:58:48;;;;;;;2.63;1.33;;;5.90;99.90;;;;;;5127798;27;20035;-64
2021/03/22 21:01:33;;;;;;;4.60;1.50;;;6.00;99.90;;;;;;5136137;27;20035;-64
2021/03/22 21:04:24;;;;;;;3.65;1.30;;;5.90;99.90;;;;;;5118200;27;20047;-63
2021/03/22 21:06:50;;;;;;;2.28;1.25;;;6.00;99.90;;;;;;5114156;28;20051;-65
2021/03/22 21:09:22;;;;;;;2.47;1.50;;;6.00;99.90;;;;;;5115616;28;20085;-66
2021/03/22 21:11:49;;;;;;;3.78;1.45;;;6.10;99.90;;;;;;5115812;28;20043;-66
2021/03/22 21:14:27;;;;;;;3.95;1.13;;;6.00;99.90;;;;;;5081951;28;20475;-66
2021/03/22 21:17:09;;;;;;;3.85;1.05;;;6.00;99.90;;;;;;5115420;28;20085;-66
2021/03/22 21:23:49;;;;;;;1.92;0.85;;;6.10;99.90;;;;;;5109379;28;20543;-66
2021/03/22 21:26:22;;;;;;;4.35;1.20;;;6.10;99.90;;;;;;5103035;28;20582;-66
2021/03/22 21:28:50;;;;;;;1.65;0.90;;;6.10;99.90;;;;;;5115487;28;20040;-66
2021/03/22 21:31:24;;;;;;;2.95;1.00;;;6.10;99.90;;;;;;5078645;28;20043;-66
2021/03/22 21:33:54;;;;;;;2.45;1.10;;;6.10;99.90;;;;;;5115336;28;20040;-66
2021/03/22 21:36:24;;;;;;;1.90;1.10;;;6.10;99.90;;;;;;5106004;28;20118;-65
2021/03/22 21:38:58;;;;;;;3.17;1.38;;;6.20;99.90;;;;;;5074961;28;20513;-66
2021/03/22 21:41:26;;;;;;;3.15;1.00;;;6.20;99.90;;;;;;5115059;28;20108;-66
2021/03/22 21:43:53;;;;;;;2.92;1.08;;;6.30;99.90;;;;;;5115044;28;20554;-66
2021/03/22 21:46:25;;;;;;;2.03;1.10;;;6.10;99.90;;;;;;5113937;28;20506;-66
2021/03/22 21:48:52;;;;;;;3.03;1.33;;;6.20;99.90;;;;;;5115194;28;20047;-66
2021/03/22 21:51:25;;;;;;;4.97;1.90;;;6.20;99.90;;;;;;5114843;28;20032;-67
2021/03/22 21:53:55;;;;;;;3.22;0.98;;;6.20;99.90;;;;;;5114682;28;20047;-66
2021/03/22 21:56:30;;;;;;;3.92;1.17;;;6.20;99.90;;;;;;5104404;28;20402;-66
2021/03/22 21:59:12;;;;;;;1.83;0.95;;;6.20;99.90;;;;;;5110861;28;20050;-66
2021/03/22 22:01:44;;;;;;;1.75;1.10;;;6.20;99.90;;;;;;5114652;28;20035;-66
2021/03/22 22:04:22;;;;;;;1.92;0.93;;;6.20;99.90;;;;;;5114415;28;20040;-66
2021/03/22 22:07:13;;;;;;;2.55;1.30;;;6.20;99.90;;;;;;5129434;27;20051;-66
2021/03/22 22:13:56;;;;;;;1.75;0.73;;;6.20;99.90;;;;;;5125318;27;20038;-65
2021/03/22 22:16:28;;;;;;;2.13;0.82;;;6.20;99.90;;;;;;5094081;28;20482;-66
2021/03/22 22:18:55;;;;;;;2.05;0.95;;;6.20;99.90;;;;;;5116554;27;20375;-66
2021/03/22 22:21:23;;;;;;;4.38;1.25;;;6.20;99.90;;;;;;5116296;27;20443;-66
2021/03/22 22:23:57;;;;;;;4.30;1.27;;;6.20;99.90;;;;;;5105127;27;20035;-66
2021/03/22 22:30:10;;;;;;;3.60;1.00;;;6.20;99.90;;;;;;5134960;27;20071;-66
2021/03/22 22:36:26;;;;;;;2.20;1.08;;;6.30;99.90;;;;;;5093856;28;20144;-66
2021/03/22 22:38:58;;;;;;;2.83;1.13;;;6.30;99.90;;;;;;5134419;27;20092;-66
2021/03/22 22:41:30;;;;;;;2.80;1.00;;;6.30;99.90;;;;;;5116128;27;20119;-66
2021/03/22 22:43:59;;;;;;;2.67;1.08;;;6.30;99.90;;;;;;5134687;27;20103;-66
2021/03/22 22:46:33;;;;;;;2.97;1.30;;;6.30;99.90;;;;;;5134490;27;20062;-67
2021/03/22 22:49:04;;;;;;;2.95;0.93;;;6.30;99.90;;;;;;5093891;28;20071;-66
2021/03/22 22:51:33;;;;;;;3.25;1.00;;;6.30;99.90;;;;;;5124540;27;20482;-66
2021/03/22 22:53:59;;;;;;;2.38;1.00;;;6.30;99.90;;;;;;5134236;27;20084;-66
2021/03/22 22:56:34;;;;;;;2.78;1.17;;;6.30;99.90;;;;;;5134372;27;20494;-66
2021/03/22 22:59:03;;;;;;;4.82;1.30;;;6.30;99.90;;;;;;5134636;27;20406;-67
2021/03/22 23:01:38;;;;;;;1.42;0.90;;;6.30;99.90;;;;;;5124788;28;20050;-66
2021/03/22 23:04:12;;;;;;;3.85;1.25;;;6.40;99.90;;;;;;5134209;28;20039;-67